sensor_id;sensor_type;location;lat;lon;timestamp;P1;durP1;ratioP1;P2;durP2;ratioP2
34902;SDS011;21114;44.840;0.214;2024-02-26T00:01:45;13.07;;;4.10;;
34902;SDS011;21114;44.840;0.214;2024-02-26T00:04:11;15.65;;;4.28;;
34902;SDS011;21114;44.840;0.214;2024-02-26T00:06:38;13.45;;;2.53;;
34902;SDS011;21114;44.840;0.214;2024-02-26T00:09:06;13.93;;;3.08;;
34902;SDS011;21114;44.840;0.214;2024-02-26T00:12:20;10.05;;;4.03;;
34902;SDS011;21114;44.840;0.214;2024-02-26T00:14:46;10.95;;;2.97;;
34902;SDS011;21114;44.840;0.214;2024-02-26T00:17:14;14.85;;;4.75;;
34902;SDS011;21114;44.840;0.214;2024-02-26T00:19:41;14.55;;;5.05;;
34902;SDS011;21114;44.840;0.214;2024-02-26T00:22:07;15.60;;;4.30;;
34902;SDS011;21114;44.840;0.214;2024-02-26T00:24:33;21.15;;;6.03;;
34902;SDS011;21114;44.840;0.214;2024-02-26T00:26:59;13.82;;;4.38;;
34902;SDS011;21114;44.840;0.214;2024-02-26T00:29:25;11.30;;;2.78;;
34902;SDS011;21114;44.840;0.214;2024-02-26T00:31:51;20.80;;;4.97;;
34902;SDS011;21114;44.840;0.214;2024-02-26T00:34:18;15.25;;;3.80;;
34902;SDS011;21114;44.840;0.214;2024-02-26T00:36:59;12.07;;;2.92;;
34902;SDS011;21114;44.840;0.214;2024-02-26T00:40:17;15.93;;;3.20;;
34902;SDS011;21114;44.840;0.214;2024-02-26T00:43:31;8.75;;;4.05;;
34902;SDS011;21114;44.840;0.214;2024-02-26T00:45:57;10.93;;;4.35;;
34902;SDS011;21114;44.840;0.214;2024-02-26T00:48:23;19.92;;;4.68;;
34902;SDS011;21114;44.840;0.214;2024-02-26T00:50:50;13.27;;;5.20;;
34902;SDS011;21114;44.840;0.214;2024-02-26T00:54:05;14.48;;;3.85;;
34902;SDS011;21114;44.840;0.214;2024-02-26T00:56:31;9.93;;;3.88;;
34902;SDS011;21114;44.840;0.214;2024-02-26T00:58:58;11.02;;;4.07;;
34902;SDS011;21114;44.840;0.214;2024-02-26T01:02:13;14.55;;;3.42;;
34902;SDS011;21114;44.840;0.214;2024-02-26T01:04:39;12.68;;;4.93;;
34902;SDS011;21114;44.840;0.214;2024-02-26T01:07:05;15.45;;;2.90;;
34902;SDS011;21114;44.840;0.214;2024-02-26T01:09:31;16.45;;;4.57;;
34902;SDS011;21114;44.840;0.214;2024-02-26T01:11:57;11.85;;;4.32;;
34902;SDS011;21114;44.840;0.214;2024-02-26T01:14:23;14.55;;;2.78;;
34902;SDS011;21114;44.840;0.214;2024-02-26T01:16:49;11.68;;;3.47;;
34902;SDS011;21114;44.840;0.214;2024-02-26T01:20:04;18.35;;;4.63;;
34902;SDS011;21114;44.840;0.214;2024-02-26T01:22:30;20.75;;;5.45;;
34902;SDS011;21114;44.840;0.214;2024-02-26T01:24:56;15.02;;;4.65;;
34902;SDS011;21114;44.840;0.214;2024-02-26T01:27:23;10.43;;;4.20;;
34902;SDS011;21114;44.840;0.214;2024-02-26T01:29:51;19.52;;;6.45;;
34902;SDS011;21114;44.840;0.214;2024-02-26T01:32:18;13.55;;;3.63;;
34902;SDS011;21114;44.840;0.214;2024-02-26T01:34:44;13.15;;;4.07;;
34902;SDS011;21114;44.840;0.214;2024-02-26T01:37:10;10.48;;;3.58;;
34902;SDS011;21114;44.840;0.214;2024-02-26T01:40:28;18.75;;;5.15;;
34902;SDS011;21114;44.840;0.214;2024-02-26T01:43:42;12.32;;;5.03;;
34902;SDS011;21114;44.840;0.214;2024-02-26T01:46:10;19.58;;;5.38;;
34902;SDS011;21114;44.840;0.214;2024-02-26T01:49:26;8.02;;;2.50;;
34902;SDS011;21114;44.840;0.214;2024-02-26T01:52:41;17.88;;;5.13;;
34902;SDS011;21114;44.840;0.214;2024-02-26T01:55:56;22.67;;;5.40;;
34902;SDS011;21114;44.840;0.214;2024-02-26T01:58:22;16.02;;;4.72;;
34902;SDS011;21114;44.840;0.214;2024-02-26T02:00:49;13.40;;;4.30;;
34902;SDS011;21114;44.840;0.214;2024-02-26T02:03:15;10.85;;;3.80;;
34902;SDS011;21114;44.840;0.214;2024-02-26T02:06:24;15.10;;;4.30;;
34902;SDS011;21114;44.840;0.214;2024-02-26T02:09:21;11.25;;;3.33;;
34902;SDS011;21114;44.840;0.214;2024-02-26T02:11:48;12.55;;;4.95;;
34902;SDS011;21114;44.840;0.214;2024-02-26T02:14:14;18.52;;;4.18;;
34902;SDS011;21114;44.840;0.214;2024-02-26T02:17:19;13.13;;;2.90;;
34902;SDS011;21114;44.840;0.214;2024-02-26T02:19:45;19.40;;;4.00;;
34902;SDS011;21114;44.840;0.214;2024-02-26T02:22:11;10.48;;;2.55;;
34902;SDS011;21114;44.840;0.214;2024-02-26T02:24:37;7.85;;;3.25;;
34902;SDS011;21114;44.840;0.214;2024-02-26T02:27:03;10.15;;;3.50;;
34902;SDS011;21114;44.840;0.214;2024-02-26T02:29:29;9.57;;;2.70;;
34902;SDS011;21114;44.840;0.214;2024-02-26T02:31:56;11.10;;;3.53;;
34902;SDS011;21114;44.840;0.214;2024-02-26T02:35:10;8.00;;;3.13;;
34902;SDS011;21114;44.840;0.214;2024-02-26T02:38:25;14.40;;;3.20;;
34902;SDS011;21114;44.840;0.214;2024-02-26T02:40:51;9.50;;;1.98;;
34902;SDS011;21114;44.840;0.214;2024-02-26T02:44:05;10.68;;;3.42;;
34902;SDS011;21114;44.840;0.214;2024-02-26T02:46:31;13.30;;;4.68;;
34902;SDS011;21114;44.840;0.214;2024-02-26T02:49:00;12.48;;;3.28;;
34902;SDS011;21114;44.840;0.214;2024-02-26T02:51:41;13.48;;;5.13;;
34902;SDS011;21114;44.840;0.214;2024-02-26T02:54:56;15.13;;;4.03;;
34902;SDS011;21114;44.840;0.214;2024-02-26T02:58:10;19.60;;;4.70;;
34902;SDS011;21114;44.840;0.214;2024-02-26T03:01:25;13.32;;;4.10;;
34902;SDS011;21114;44.840;0.214;2024-02-26T03:03:51;11.38;;;2.97;;
34902;SDS011;21114;44.840;0.214;2024-02-26T03:07:05;8.05;;;3.42;;
34902;SDS011;21114;44.840;0.214;2024-02-26T03:09:31;16.58;;;3.25;;
34902;SDS011;21114;44.840;0.214;2024-02-26T03:11:57;9.05;;;3.97;;
34902;SDS011;21114;44.840;0.214;2024-02-26T03:14:23;9.63;;;2.72;;
34902;SDS011;21114;44.840;0.214;2024-02-26T03:16:52;11.23;;;3.10;;
34902;SDS011;21114;44.840;0.214;2024-02-26T03:20:07;11.90;;;3.33;;
34902;SDS011;21114;44.840;0.214;2024-02-26T03:23:16;17.45;;;4.60;;
34902;SDS011;21114;44.840;0.214;2024-02-26T03:25:44;13.30;;;3.72;;
34902;SDS011;21114;44.840;0.214;2024-02-26T03:28:59;14.88;;;3.13;;
34902;SDS011;21114;44.840;0.214;2024-02-26T03:32:13;10.13;;;2.40;;
34902;SDS011;21114;44.840;0.214;2024-02-26T03:34:39;11.38;;;3.60;;
34902;SDS011;21114;44.840;0.214;2024-02-26T03:37:53;7.38;;;2.30;;
34902;SDS011;21114;44.840;0.214;2024-02-26T03:40:19;9.38;;;3.65;;
34902;SDS011;21114;44.840;0.214;2024-02-26T03:42:46;8.70;;;2.10;;
34902;SDS011;21114;44.840;0.214;2024-02-26T03:45:12;5.68;;;2.63;;
34902;SDS011;21114;44.840;0.214;2024-02-26T03:47:38;12.25;;;3.78;;
34902;SDS011;21114;44.840;0.214;2024-02-26T03:50:07;14.25;;;2.42;;
34902;SDS011;21114;44.840;0.214;2024-02-26T03:53:21;12.65;;;3.78;;
34902;SDS011;21114;44.840;0.214;2024-02-26T03:55:47;15.35;;;4.20;;
34902;SDS011;21114;44.840;0.214;2024-02-26T03:58:14;10.50;;;2.72;;
34902;SDS011;21114;44.840;0.214;2024-02-26T04:00:40;10.70;;;4.43;;
34902;SDS011;21114;44.840;0.214;2024-02-26T04:03:06;14.40;;;2.80;;
34902;SDS011;21114;44.840;0.214;2024-02-26T04:05:32;8.63;;;2.97;;
34902;SDS011;21114;44.840;0.214;2024-02-26T04:07:58;11.15;;;4.78;;
34902;SDS011;21114;44.840;0.214;2024-02-26T04:10:24;11.32;;;4.40;;
34902;SDS011;21114;44.840;0.214;2024-02-26T04:12:50;8.57;;;2.70;;
34902;SDS011;21114;44.840;0.214;2024-02-26T04:15:16;9.23;;;3.33;;
34902;SDS011;21114;44.840;0.214;2024-02-26T04:17:42;17.00;;;3.97;;
34902;SDS011;21114;44.840;0.214;2024-02-26T04:20:13;9.32;;;3.00;;
34902;SDS011;21114;44.840;0.214;2024-02-26T04:23:27;16.70;;;4.15;;
34902;SDS011;21114;44.840;0.214;2024-02-26T04:25:53;12.60;;;3.05;;
34902;SDS011;21114;44.840;0.214;2024-02-26T04:28:20;13.25;;;5.47;;
34902;SDS011;21114;44.840;0.214;2024-02-26T04:30:47;14.32;;;4.90;;
34902;SDS011;21114;44.840;0.214;2024-02-26T04:34:01;11.48;;;2.85;;
34902;SDS011;21114;44.840;0.214;2024-02-26T04:37:17;12.13;;;2.88;;
34902;SDS011;21114;44.840;0.214;2024-02-26T04:40:20;15.43;;;2.78;;
34902;SDS011;21114;44.840;0.214;2024-02-26T04:42:46;15.63;;;3.83;;
34902;SDS011;21114;44.840;0.214;2024-02-26T04:45:12;10.55;;;2.65;;
34902;SDS011;21114;44.840;0.214;2024-02-26T04:47:38;18.52;;;3.05;;
34902;SDS011;21114;44.840;0.214;2024-02-26T04:50:05;8.95;;;3.03;;
34902;SDS011;21114;44.840;0.214;2024-02-26T04:52:31;12.43;;;4.03;;
34902;SDS011;21114;44.840;0.214;2024-02-26T04:55:18;13.43;;;3.75;;
34902;SDS011;21114;44.840;0.214;2024-02-26T04:57:44;11.68;;;3.17;;
34902;SDS011;21114;44.840;0.214;2024-02-26T05:00:10;22.25;;;4.32;;
34902;SDS011;21114;44.840;0.214;2024-02-26T05:03:25;11.63;;;2.75;;
34902;SDS011;21114;44.840;0.214;2024-02-26T05:05:51;8.73;;;3.55;;
34902;SDS011;21114;44.840;0.214;2024-02-26T05:08:17;20.98;;;5.43;;
34902;SDS011;21114;44.840;0.214;2024-02-26T05:11:21;8.95;;;3.30;;
34902;SDS011;21114;44.840;0.214;2024-02-26T05:13:47;11.63;;;4.32;;
34902;SDS011;21114;44.840;0.214;2024-02-26T05:16:13;11.25;;;3.00;;
34902;SDS011;21114;44.840;0.214;2024-02-26T05:18:39;19.95;;;6.20;;
34902;SDS011;21114;44.840;0.214;2024-02-26T05:21:05;18.10;;;4.45;;
34902;SDS011;21114;44.840;0.214;2024-02-26T05:23:32;9.93;;;3.33;;
34902;SDS011;21114;44.840;0.214;2024-02-26T05:25:58;9.77;;;2.85;;
34902;SDS011;21114;44.840;0.214;2024-02-26T05:28:24;8.63;;;2.55;;
34902;SDS011;21114;44.840;0.214;2024-02-26T05:30:50;18.02;;;5.00;;
34902;SDS011;21114;44.840;0.214;2024-02-26T05:34:04;21.52;;;3.13;;
34902;SDS011;21114;44.840;0.214;2024-02-26T05:36:30;12.48;;;3.13;;
34902;SDS011;21114;44.840;0.214;2024-02-26T05:38:58;11.93;;;2.97;;
34902;SDS011;21114;44.840;0.214;2024-02-26T05:42:13;13.30;;;2.83;;
34902;SDS011;21114;44.840;0.214;2024-02-26T05:44:39;14.13;;;4.25;;
34902;SDS011;21114;44.840;0.214;2024-02-26T05:47:05;10.60;;;2.22;;
34902;SDS011;21114;44.840;0.214;2024-02-26T05:49:31;14.15;;;3.85;;
34902;SDS011;21114;44.840;0.214;2024-02-26T05:51:58;11.90;;;2.60;;
34902;SDS011;21114;44.840;0.214;2024-02-26T05:54:24;11.07;;;4.40;;
34902;SDS011;21114;44.840;0.214;2024-02-26T05:56:50;15.27;;;3.50;;
34902;SDS011;21114;44.840;0.214;2024-02-26T05:59:16;11.40;;;4.72;;
34902;SDS011;21114;44.840;0.214;2024-02-26T06:01:43;11.88;;;2.60;;
34902;SDS011;21114;44.840;0.214;2024-02-26T06:04:09;15.80;;;3.22;;
34902;SDS011;21114;44.840;0.214;2024-02-26T06:06:35;14.45;;;4.70;;
34902;SDS011;21114;44.840;0.214;2024-02-26T06:09:01;12.63;;;3.97;;
34902;SDS011;21114;44.840;0.214;2024-02-26T06:11:30;13.32;;;3.38;;
34902;SDS011;21114;44.840;0.214;2024-02-26T06:13:56;12.20;;;2.90;;
34902;SDS011;21114;44.840;0.214;2024-02-26T06:16:22;8.25;;;2.35;;
34902;SDS011;21114;44.840;0.214;2024-02-26T06:19:24;8.77;;;3.47;;
34902;SDS011;21114;44.840;0.214;2024-02-26T06:22:42;12.38;;;2.88;;
34902;SDS011;21114;44.840;0.214;2024-02-26T06:25:56;10.35;;;2.63;;
34902;SDS011;21114;44.840;0.214;2024-02-26T06:29:11;10.55;;;3.45;;
34902;SDS011;21114;44.840;0.214;2024-02-26T06:32:20;9.68;;;3.17;;
34902;SDS011;21114;44.840;0.214;2024-02-26T06:35:29;9.98;;;2.20;;
34902;SDS011;21114;44.840;0.214;2024-02-26T06:37:55;12.85;;;2.95;;
34902;SDS011;21114;44.840;0.214;2024-02-26T06:40:21;9.18;;;3.22;;
34902;SDS011;21114;44.840;0.214;2024-02-26T06:42:47;12.15;;;4.25;;
34902;SDS011;21114;44.840;0.214;2024-02-26T06:45:15;8.18;;;3.80;;
34902;SDS011;21114;44.840;0.214;2024-02-26T06:47:41;12.32;;;3.47;;
34902;SDS011;21114;44.840;0.214;2024-02-26T06:50:55;11.65;;;4.07;;
34902;SDS011;21114;44.840;0.214;2024-02-26T06:53:22;17.25;;;4.88;;
34902;SDS011;21114;44.840;0.214;2024-02-26T06:56:19;10.25;;;5.47;;
34902;SDS011;21114;44.840;0.214;2024-02-26T06:58:45;9.63;;;4.63;;
34902;SDS011;21114;44.840;0.214;2024-02-26T07:02:00;9.93;;;3.70;;
34902;SDS011;21114;44.840;0.214;2024-02-26T07:04:26;14.35;;;4.38;;
34902;SDS011;21114;44.840;0.214;2024-02-26T07:06:52;16.58;;;3.65;;
34902;SDS011;21114;44.840;0.214;2024-02-26T07:09:18;18.65;;;5.55;;
34902;SDS011;21114;44.840;0.214;2024-02-26T07:11:44;18.08;;;4.97;;
34902;SDS011;21114;44.840;0.214;2024-02-26T07:14:10;10.93;;;4.15;;
34902;SDS011;21114;44.840;0.214;2024-02-26T07:16:36;12.50;;;3.30;;
34902;SDS011;21114;44.840;0.214;2024-02-26T07:19:02;16.08;;;4.50;;
34902;SDS011;21114;44.840;0.214;2024-02-26T07:21:29;16.00;;;3.75;;
34902;SDS011;21114;44.840;0.214;2024-02-26T07:23:55;12.48;;;3.65;;
34902;SDS011;21114;44.840;0.214;2024-02-26T07:27:10;11.35;;;5.13;;
34902;SDS011;21114;44.840;0.214;2024-02-26T07:29:36;10.82;;;2.97;;
34902;SDS011;21114;44.840;0.214;2024-02-26T07:32:02;13.38;;;3.35;;
34902;SDS011;21114;44.840;0.214;2024-02-26T07:34:29;13.48;;;3.40;;
34902;SDS011;21114;44.840;0.214;2024-02-26T07:36:55;11.18;;;3.58;;
34902;SDS011;21114;44.840;0.214;2024-02-26T07:39:21;18.90;;;5.00;;
34902;SDS011;21114;44.840;0.214;2024-02-26T07:42:36;12.65;;;4.38;;
34902;SDS011;21114;44.840;0.214;2024-02-26T07:45:02;13.02;;;4.18;;
34902;SDS011;21114;44.840;0.214;2024-02-26T07:47:28;10.73;;;4.18;;
34902;SDS011;21114;44.840;0.214;2024-02-26T07:49:54;10.25;;;2.28;;
34902;SDS011;21114;44.840;0.214;2024-02-26T07:52:20;8.57;;;3.00;;
34902;SDS011;21114;44.840;0.214;2024-02-26T07:55:35;12.45;;;4.75;;
34902;SDS011;21114;44.840;0.214;2024-02-26T07:58:01;17.23;;;3.30;;
34902;SDS011;21114;44.840;0.214;2024-02-26T08:00:27;9.50;;;2.53;;
34902;SDS011;21114;44.840;0.214;2024-02-26T08:02:53;14.00;;;3.15;;
34902;SDS011;21114;44.840;0.214;2024-02-26T08:05:19;12.65;;;3.45;;
34902;SDS011;21114;44.840;0.214;2024-02-26T08:07:46;14.68;;;3.83;;
34902;SDS011;21114;44.840;0.214;2024-02-26T08:10:12;12.38;;;3.05;;
34902;SDS011;21114;44.840;0.214;2024-02-26T08:12:38;11.45;;;3.28;;
34902;SDS011;21114;44.840;0.214;2024-02-26T08:15:04;12.32;;;3.03;;
34902;SDS011;21114;44.840;0.214;2024-02-26T08:18:19;5.70;;;2.60;;
34902;SDS011;21114;44.840;0.214;2024-02-26T08:20:45;10.80;;;2.70;;
34902;SDS011;21114;44.840;0.214;2024-02-26T08:23:11;11.98;;;4.70;;
34902;SDS011;21114;44.840;0.214;2024-02-26T08:25:37;11.32;;;3.97;;
34902;SDS011;21114;44.840;0.214;2024-02-26T08:28:03;17.08;;;5.32;;
34902;SDS011;21114;44.840;0.214;2024-02-26T08:30:30;14.65;;;3.95;;
34902;SDS011;21114;44.840;0.214;2024-02-26T08:33:44;16.88;;;3.17;;
34902;SDS011;21114;44.840;0.214;2024-02-26T08:36:11;12.98;;;3.03;;
34902;SDS011;21114;44.840;0.214;2024-02-26T08:39:25;8.45;;;3.42;;
34902;SDS011;21114;44.840;0.214;2024-02-26T08:41:51;14.40;;;3.00;;
34902;SDS011;21114;44.840;0.214;2024-02-26T08:44:54;11.95;;;3.10;;
34902;SDS011;21114;44.840;0.214;2024-02-26T08:47:20;13.30;;;3.85;;
34902;SDS011;21114;44.840;0.214;2024-02-26T08:49:46;13.18;;;4.03;;
34902;SDS011;21114;44.840;0.214;2024-02-26T08:52:12;17.27;;;3.95;;
34902;SDS011;21114;44.840;0.214;2024-02-26T08:54:39;9.50;;;3.97;;
34902;SDS011;21114;44.840;0.214;2024-02-26T08:57:05;9.45;;;3.33;;
34902;SDS011;21114;44.840;0.214;2024-02-26T08:59:31;17.15;;;3.15;;
34902;SDS011;21114;44.840;0.214;2024-02-26T09:01:57;10.27;;;2.65;;
34902;SDS011;21114;44.840;0.214;2024-02-26T09:04:24;10.35;;;3.33;;
34902;SDS011;21114;44.840;0.214;2024-02-26T09:06:51;9.45;;;2.88;;
34902;SDS011;21114;44.840;0.214;2024-02-26T09:09:17;8.10;;;2.70;;
34902;SDS011;21114;44.840;0.214;2024-02-26T09:11:43;11.77;;;2.78;;
34902;SDS011;21114;44.840;0.214;2024-02-26T09:14:09;9.20;;;3.45;;
34902;SDS011;21114;44.840;0.214;2024-02-26T09:16:35;11.52;;;3.03;;
34902;SDS011;21114;44.840;0.214;2024-02-26T09:19:01;10.52;;;2.92;;
34902;SDS011;21114;44.840;0.214;2024-02-26T09:21:28;6.95;;;1.98;;
34902;SDS011;21114;44.840;0.214;2024-02-26T09:23:54;9.95;;;3.13;;
34902;SDS011;21114;44.840;0.214;2024-02-26T09:27:08;10.15;;;2.28;;
34902;SDS011;21114;44.840;0.214;2024-02-26T09:29:35;7.78;;;2.03;;
34902;SDS011;21114;44.840;0.214;2024-02-26T09:32:49;9.57;;;1.75;;
34902;SDS011;21114;44.840;0.214;2024-02-26T09:36:04;15.32;;;5.53;;
34902;SDS011;21114;44.840;0.214;2024-02-26T09:39:18;5.65;;;2.25;;
34902;SDS011;21114;44.840;0.214;2024-02-26T09:41:47;6.97;;;1.92;;
34902;SDS011;21114;44.840;0.214;2024-02-26T09:44:15;2.05;;;1.25;;
34902;SDS011;21114;44.840;0.214;2024-02-26T09:47:20;3.17;;;0.90;;
34902;SDS011;21114;44.840;0.214;2024-02-26T09:50:35;1.85;;;0.57;;
34902;SDS011;21114;44.840;0.214;2024-02-26T09:53:51;2.67;;;1.92;;
34902;SDS011;21114;44.840;0.214;2024-02-26T09:57:05;2.33;;;0.57;;
34902;SDS011;21114;44.840;0.214;2024-02-26T10:00:23;2.05;;;0.68;;
34902;SDS011;21114;44.840;0.214;2024-02-26T10:03:37;2.60;;;1.92;;
34902;SDS011;21114;44.840;0.214;2024-02-26T10:06:21;0.95;;;0.40;;
34902;SDS011;21114;44.840;0.214;2024-02-26T10:08:47;1.67;;;0.70;;
34902;SDS011;21114;44.840;0.214;2024-02-26T10:11:13;2.80;;;0.70;;
34902;SDS011;21114;44.840;0.214;2024-02-26T10:14:29;1.58;;;0.65;;
34902;SDS011;21114;44.840;0.214;2024-02-26T10:16:55;5.18;;;2.78;;
34902;SDS011;21114;44.840;0.214;2024-02-26T10:19:28;2.25;;;1.00;;
34902;SDS011;21114;44.840;0.214;2024-02-26T10:22:23;1.17;;;0.60;;
34902;SDS011;21114;44.840;0.214;2024-02-26T10:24:49;2.25;;;0.63;;
34902;SDS011;21114;44.840;0.214;2024-02-26T10:27:15;2.15;;;0.70;;
34902;SDS011;21114;44.840;0.214;2024-02-26T10:29:42;4.07;;;1.77;;
34902;SDS011;21114;44.840;0.214;2024-02-26T10:32:08;5.05;;;1.42;;
34902;SDS011;21114;44.840;0.214;2024-02-26T10:34:35;1.65;;;0.63;;
34902;SDS011;21114;44.840;0.214;2024-02-26T10:37:04;1.63;;;0.52;;
34902;SDS011;21114;44.840;0.214;2024-02-26T10:40:19;1.42;;;0.68;;
34902;SDS011;21114;44.840;0.214;2024-02-26T10:42:45;2.00;;;0.70;;
34902;SDS011;21114;44.840;0.214;2024-02-26T10:45:12;1.73;;;0.80;;
34902;SDS011;21114;44.840;0.214;2024-02-26T10:48:26;1.60;;;0.57;;
34902;SDS011;21114;44.840;0.214;2024-02-26T10:50:52;3.53;;;0.70;;
34902;SDS011;21114;44.840;0.214;2024-02-26T10:53:20;2.53;;;0.50;;
34902;SDS011;21114;44.840;0.214;2024-02-26T10:56:35;1.50;;;0.65;;
34902;SDS011;21114;44.840;0.214;2024-02-26T10:59:51;2.92;;;0.70;;
34902;SDS011;21114;44.840;0.214;2024-02-26T11:03:06;3.08;;;1.20;;
34902;SDS011;21114;44.840;0.214;2024-02-26T11:05:34;2.15;;;1.10;;
34902;SDS011;21114;44.840;0.214;2024-02-26T11:08:27;2.45;;;1.10;;
34902;SDS011;21114;44.840;0.214;2024-02-26T11:10:54;2.33;;;0.60;;
34902;SDS011;21114;44.840;0.214;2024-02-26T11:13:40;4.68;;;1.33;;
34902;SDS011;21114;44.840;0.214;2024-02-26T11:16:09;5.97;;;0.75;;
34902;SDS011;21114;44.840;0.214;2024-02-26T11:19:24;4.97;;;0.98;;
34902;SDS011;21114;44.840;0.214;2024-02-26T11:22:38;2.00;;;0.60;;
34902;SDS011;21114;44.840;0.214;2024-02-26T11:25:05;1.40;;;1.13;;
34902;SDS011;21114;44.840;0.214;2024-02-26T11:27:32;3.08;;;0.98;;
34902;SDS011;21114;44.840;0.214;2024-02-26T11:30:26;5.13;;;0.70;;
34902;SDS011;21114;44.840;0.214;2024-02-26T11:33:51;2.58;;;1.27;;
34902;SDS011;21114;44.840;0.214;2024-02-26T11:36:17;3.13;;;1.67;;
34902;SDS011;21114;44.840;0.214;2024-02-26T11:39:32;2.97;;;0.70;;
34902;SDS011;21114;44.840;0.214;2024-02-26T11:42:23;2.90;;;0.95;;
34902;SDS011;21114;44.840;0.214;2024-02-26T11:45:47;5.75;;;1.95;;
34902;SDS011;21114;44.840;0.214;2024-02-26T11:49:01;4.05;;;1.33;;
34902;SDS011;21114;44.840;0.214;2024-02-26T11:52:15;2.47;;;1.42;;
34902;SDS011;21114;44.840;0.214;2024-02-26T11:55:33;4.43;;;2.08;;
34902;SDS011;21114;44.840;0.214;2024-02-26T11:58:48;3.25;;;1.30;;
34902;SDS011;21114;44.840;0.214;2024-02-26T12:04:26;2.38;;;1.10;;
34902;SDS011;21114;44.840;0.214;2024-02-26T12:07:45;2.38;;;1.05;;
34902;SDS011;21114;44.840;0.214;2024-02-26T12:10:59;6.18;;;1.95;;
34902;SDS011;21114;44.840;0.214;2024-02-26T12:14:14;3.97;;;1.42;;
34902;SDS011;21114;44.840;0.214;2024-02-26T12:17:32;3.38;;;0.88;;
34902;SDS011;21114;44.840;0.214;2024-02-26T12:20:46;3.47;;;1.60;;
34902;SDS011;21114;44.840;0.214;2024-02-26T12:24:13;5.30;;;1.92;;
34902;SDS011;21114;44.840;0.214;2024-02-26T12:27:28;2.90;;;0.88;;
34902;SDS011;21114;44.840;0.214;2024-02-26T12:29:54;3.75;;;1.63;;
34902;SDS011;21114;44.840;0.214;2024-02-26T12:32:21;3.30;;;1.02;;
34902;SDS011;21114;44.840;0.214;2024-02-26T12:35:35;2.60;;;1.00;;
34902;SDS011;21114;44.840;0.214;2024-02-26T12:38:50;4.35;;;1.35;;
34902;SDS011;21114;44.840;0.214;2024-02-26T12:42:05;2.63;;;0.55;;
34902;SDS011;21114;44.840;0.214;2024-02-26T12:44:31;5.32;;;0.82;;
34902;SDS011;21114;44.840;0.214;2024-02-26T12:47:01;5.15;;;0.90;;
34902;SDS011;21114;44.840;0.214;2024-02-26T12:50:16;1.30;;;0.80;;
34902;SDS011;21114;44.840;0.214;2024-02-26T12:52:46;2.15;;;0.57;;
34902;SDS011;21114;44.840;0.214;2024-02-26T12:55:29;7.32;;;1.33;;
34902;SDS011;21114;44.840;0.214;2024-02-26T12:58:43;2.50;;;0.73;;
34902;SDS011;21114;44.840;0.214;2024-02-26T13:01:58;3.65;;;1.40;;
34902;SDS011;21114;44.840;0.214;2024-02-26T13:04:26;1.13;;;0.85;;
34902;SDS011;21114;44.840;0.214;2024-02-26T13:07:24;3.47;;;0.73;;
34902;SDS011;21114;44.840;0.214;2024-02-26T13:09:51;3.50;;;0.70;;
34902;SDS011;21114;44.840;0.214;2024-02-26T13:13:05;3.42;;;0.93;;
34902;SDS011;21114;44.840;0.214;2024-02-26T13:16:20;2.17;;;0.88;;
34902;SDS011;21114;44.840;0.214;2024-02-26T13:19:37;5.13;;;0.95;;
34902;SDS011;21114;44.840;0.214;2024-02-26T13:22:59;4.10;;;1.98;;
34902;SDS011;21114;44.840;0.214;2024-02-26T13:26:13;7.00;;;1.85;;
34902;SDS011;21114;44.840;0.214;2024-02-26T13:29:30;4.10;;;1.10;;
34902;SDS011;21114;44.840;0.214;2024-02-26T13:31:59;2.00;;;1.00;;
34902;SDS011;21114;44.840;0.214;2024-02-26T13:35:13;3.92;;;0.98;;
34902;SDS011;21114;44.840;0.214;2024-02-26T13:38:28;2.63;;;0.90;;
34902;SDS011;21114;44.840;0.214;2024-02-26T13:41:42;3.80;;;1.02;;
34902;SDS011;21114;44.840;0.214;2024-02-26T13:44:57;2.45;;;1.02;;
34902;SDS011;21114;44.840;0.214;2024-02-26T13:47:23;2.25;;;1.13;;
34902;SDS011;21114;44.840;0.214;2024-02-26T13:49:49;2.63;;;1.33;;
34902;SDS011;21114;44.840;0.214;2024-02-26T13:52:15;2.40;;;1.50;;
34902;SDS011;21114;44.840;0.214;2024-02-26T13:54:41;3.50;;;1.55;;
34902;SDS011;21114;44.840;0.214;2024-02-26T13:57:07;2.85;;;1.30;;
34902;SDS011;21114;44.840;0.214;2024-02-26T13:59:47;4.20;;;1.70;;
34902;SDS011;21114;44.840;0.214;2024-02-26T14:03:02;4.45;;;2.47;;
34902;SDS011;21114;44.840;0.214;2024-02-26T14:05:28;5.03;;;2.05;;
34902;SDS011;21114;44.840;0.214;2024-02-26T14:07:55;3.88;;;0.93;;
34902;SDS011;21114;44.840;0.214;2024-02-26T14:10:21;2.25;;;0.70;;
34902;SDS011;21114;44.840;0.214;2024-02-26T14:12:47;1.55;;;0.60;;
34902;SDS011;21114;44.840;0.214;2024-02-26T14:15:13;2.55;;;0.90;;
34902;SDS011;21114;44.840;0.214;2024-02-26T14:17:39;6.38;;;2.05;;
34902;SDS011;21114;44.840;0.214;2024-02-26T14:20:53;3.90;;;2.20;;
34902;SDS011;21114;44.840;0.214;2024-02-26T14:23:46;3.95;;;2.40;;
34902;SDS011;21114;44.840;0.214;2024-02-26T14:26:12;5.13;;;1.85;;
34902;SDS011;21114;44.840;0.214;2024-02-26T14:28:38;3.03;;;1.63;;
34902;SDS011;21114;44.840;0.214;2024-02-26T14:31:05;3.20;;;0.80;;
34902;SDS011;21114;44.840;0.214;2024-02-26T14:34:19;4.07;;;1.67;;
34902;SDS011;21114;44.840;0.214;2024-02-26T14:36:45;4.28;;;2.00;;
34902;SDS011;21114;44.840;0.214;2024-02-26T14:39:11;4.13;;;1.50;;
34902;SDS011;21114;44.840;0.214;2024-02-26T14:41:38;3.92;;;2.00;;
34902;SDS011;21114;44.840;0.214;2024-02-26T14:44:52;1.38;;;0.50;;
34902;SDS011;21114;44.840;0.214;2024-02-26T14:47:18;0.73;;;0.40;;
34902;SDS011;21114;44.840;0.214;2024-02-26T14:49:45;1.67;;;0.30;;
34902;SDS011;21114;44.840;0.214;2024-02-26T14:52:13;1.38;;;0.80;;
34902;SDS011;21114;44.840;0.214;2024-02-26T14:54:39;1.40;;;0.30;;
34902;SDS011;21114;44.840;0.214;2024-02-26T14:57:05;2.35;;;1.02;;
34902;SDS011;21114;44.840;0.214;2024-02-26T15:00:20;2.08;;;1.73;;
34902;SDS011;21114;44.840;0.214;2024-02-26T15:02:46;3.05;;;2.50;;
34902;SDS011;21114;44.840;0.214;2024-02-26T15:05:12;2.90;;;2.17;;
34902;SDS011;21114;44.840;0.214;2024-02-26T15:08:26;1.75;;;1.20;;
34902;SDS011;21114;44.840;0.214;2024-02-26T15:10:53;1.48;;;1.17;;
34902;SDS011;21114;44.840;0.214;2024-02-26T15:13:19;2.22;;;1.33;;
34902;SDS011;21114;44.840;0.214;2024-02-26T15:15:46;0.77;;;0.40;;
34902;SDS011;21114;44.840;0.214;2024-02-26T15:19:00;1.35;;;0.30;;
34902;SDS011;21114;44.840;0.214;2024-02-26T15:21:28;0.73;;;0.32;;
34902;SDS011;21114;44.840;0.214;2024-02-26T15:23:54;1.63;;;0.55;;
34902;SDS011;21114;44.840;0.214;2024-02-26T15:27:08;1.05;;;0.52;;
34902;SDS011;21114;44.840;0.214;2024-02-26T15:29:36;4.07;;;0.98;;
34902;SDS011;21114;44.840;0.214;2024-02-26T15:32:02;1.15;;;0.77;;
34902;SDS011;21114;44.840;0.214;2024-02-26T15:34:28;2.15;;;0.68;;
34902;SDS011;21114;44.840;0.214;2024-02-26T15:36:54;1.65;;;0.90;;
34902;SDS011;21114;44.840;0.214;2024-02-26T15:39:20;1.45;;;0.82;;
34902;SDS011;21114;44.840;0.214;2024-02-26T15:41:46;1.77;;;0.55;;
34902;SDS011;21114;44.840;0.214;2024-02-26T15:44:12;2.80;;;0.80;;
34902;SDS011;21114;44.840;0.214;2024-02-26T15:46:39;1.70;;;0.55;;
34902;SDS011;21114;44.840;0.214;2024-02-26T15:49:29;1.38;;;1.05;;
34902;SDS011;21114;44.840;0.214;2024-02-26T15:52:43;3.30;;;1.10;;
34902;SDS011;21114;44.840;0.214;2024-02-26T15:55:11;1.92;;;1.20;;
34902;SDS011;21114;44.840;0.214;2024-02-26T15:58:29;2.03;;;0.88;;
34902;SDS011;21114;44.840;0.214;2024-02-26T16:00:55;1.60;;;0.70;;
34902;SDS011;21114;44.840;0.214;2024-02-26T16:03:21;1.42;;;0.90;;
34902;SDS011;21114;44.840;0.214;2024-02-26T16:05:47;2.08;;;0.98;;
34902;SDS011;21114;44.840;0.214;2024-02-26T16:08:18;1.98;;;1.17;;
34902;SDS011;21114;44.840;0.214;2024-02-26T16:11:32;2.10;;;1.90;;